createdAt,value
2022-08-02T00:00:55.727Z,20.74
2022-08-02T00:01:57.709Z,20.80
2022-08-02T00:02:59.356Z,20.87
2022-08-02T00:04:01.065Z,20.90
2022-08-02T00:05:02.972Z,20.96
2022-08-02T00:06:04.685Z,20.95
2022-08-02T00:07:06.288Z,20.92
2022-08-02T00:08:07.864Z,20.96
2022-08-02T00:09:09.505Z,20.96
2022-08-02T00:10:12.914Z,20.94
2022-08-02T00:11:14.612Z,20.97
2022-08-02T00:12:16.556Z,20.94
2022-08-02T00:13:18.151Z,20.96
2022-08-02T00:14:19.819Z,20.99
2022-08-02T00:15:21.499Z,21.02
2022-08-02T00:16:37.260Z,21.04
2022-08-02T00:17:40.100Z,21.00
2022-08-02T00:18:41.730Z,20.98
2022-08-02T00:19:43.910Z,21.01
2022-08-02T00:20:45.500Z,21.05
2022-08-02T00:21:47.179Z,21.08
2022-08-02T00:22:48.770Z,21.11
2022-08-02T00:24:27.764Z,21.14
2022-08-02T00:25:12.061Z,21.15
2022-08-02T00:26:13.716Z,21.14
2022-08-02T00:27:15.312Z,21.14
2022-08-02T00:28:20.591Z,21.16
2022-08-02T00:29:32.355Z,21.21
2022-08-02T00:30:34.383Z,21.24
2022-08-02T00:31:36.060Z,21.25
2022-08-02T00:32:37.670Z,21.20
2022-08-02T00:34:27.462Z,21.21
2022-08-02T00:35:01.752Z,21.23
2022-08-02T00:36:03.888Z,21.27
2022-08-02T00:37:05.503Z,21.31
2022-08-02T00:38:07.170Z,21.34
2022-08-02T00:39:34.415Z,21.38
2022-08-02T00:40:30.766Z,21.40
2022-08-02T00:41:32.423Z,21.40
2022-08-02T00:42:34.015Z,21.37
2022-08-02T00:43:35.629Z,21.35
2022-08-02T00:44:37.244Z,21.32
2022-08-02T00:46:02.037Z,21.33
2022-08-02T00:47:02.195Z,21.33
2022-08-02T00:48:05.351Z,21.33
2022-08-02T00:49:07.034Z,21.34
2022-08-02T00:50:09.130Z,21.33
2022-08-02T00:51:11.927Z,21.31
2022-08-02T00:52:13.874Z,21.24
2022-08-02T00:53:15.652Z,21.22
2022-08-02T00:54:17.231Z,21.18
2022-08-02T00:55:19.010Z,21.14
2022-08-02T00:56:32.824Z,21.03
2022-08-02T00:57:34.462Z,20.90
2022-08-02T00:58:36.227Z,20.72
2022-08-02T00:59:37.935Z,20.40
2022-08-02T01:00:39.556Z,20.18
2022-08-02T01:01:57.136Z,19.98
2022-08-02T01:02:59.686Z,19.80
2022-08-02T01:04:01.297Z,19.48
2022-08-02T01:05:03.782Z,19.35
2022-08-02T01:06:13.408Z,19.32
2022-08-02T01:07:15.835Z,19.28
2022-08-02T01:08:17.702Z,19.32
2022-08-02T01:09:19.567Z,19.30
2022-08-02T01:10:21.254Z,19.36
2022-08-02T01:11:22.827Z,19.36
2022-08-02T01:12:24.394Z,19.47
2022-08-02T01:13:27.608Z,19.54
2022-08-02T01:14:29.762Z,19.67
2022-08-02T01:15:35.582Z,19.76
2022-08-02T01:16:54.093Z,19.89
2022-08-02T01:18:28.519Z,19.95
2022-08-02T01:19:30.036Z,19.97
2022-08-02T01:20:53.519Z,20.04
2022-08-02T01:22:15.079Z,20.09
2022-08-02T01:23:52.723Z,20.17
2022-08-02T01:25:13.256Z,20.28
2022-08-02T01:26:14.769Z,20.32
2022-08-02T01:28:07.425Z,20.27
2022-08-02T01:29:17.082Z,20.31
2022-08-02T01:30:19.742Z,20.36
2022-08-02T01:31:33.272Z,20.37
2022-08-02T01:32:41.596Z,20.35
2022-08-02T01:33:49.872Z,20.36
2022-08-02T01:34:56.421Z,20.35
2022-08-02T01:36:00.220Z,20.43
2022-08-02T01:37:17.003Z,20.54
2022-08-02T01:38:28.003Z,20.54
2022-08-02T01:39:33.591Z,20.56
2022-08-02T01:40:38.642Z,20.59
2022-08-02T01:41:42.494Z,20.58
2022-08-02T01:42:48.515Z,20.57
2022-08-02T01:43:55.886Z,20.59
2022-08-02T01:44:59.463Z,20.60
2022-08-02T01:46:01.593Z,20.62
2022-08-02T01:47:08.059Z,20.65
2022-08-02T01:48:11.471Z,20.65
2022-08-02T01:49:17.871Z,20.66
2022-08-02T01:50:25.876Z,20.65
2022-08-02T01:51:47.338Z,20.66
2022-08-02T01:52:53.237Z,20.66
2022-08-02T01:53:55.966Z,20.66
2022-08-02T01:55:18.786Z,20.63
2022-08-02T01:56:22.025Z,20.55
2022-08-02T01:57:26.138Z,20.50
2022-08-02T01:58:31.554Z,20.47
2022-08-02T01:59:35.298Z,20.49
2022-08-02T02:00:40.129Z,20.42
2022-08-02T02:01:43.012Z,20.38
2022-08-02T02:02:47.754Z,20.33
2022-08-02T02:03:49.890Z,20.31
2022-08-02T02:04:53.010Z,20.29
2022-08-02T02:05:58.624Z,20.31
2022-08-02T02:07:01.640Z,20.30
2022-08-02T02:08:07.243Z,20.28
2022-08-02T02:09:09.801Z,20.29
2022-08-02T02:10:15.629Z,20.31
2022-08-02T02:12:09.399Z,20.31
2022-08-02T02:12:40.662Z,20.31
2022-08-02T02:13:42.877Z,20.33
2022-08-02T02:14:49.164Z,20.32
2022-08-02T02:15:55.493Z,20.35
2022-08-02T02:16:59.320Z,20.35
2022-08-02T02:18:12.697Z,20.37
2022-08-02T02:19:20.864Z,20.35
2022-08-02T02:20:23.961Z,20.36
2022-08-02T02:21:25.674Z,20.38
2022-08-02T02:22:27.347Z,20.40
2022-08-02T02:23:30.165Z,20.41
2022-08-02T02:24:37.222Z,20.37
2022-08-02T02:25:41.722Z,20.34
2022-08-02T02:26:52.265Z,20.34
2022-08-02T02:28:13.074Z,20.37
2022-08-02T02:29:16.458Z,20.40
2022-08-02T02:30:18.358Z,20.41
2022-08-02T02:31:21.649Z,20.37
2022-08-02T02:32:25.010Z,20.35
2022-08-02T02:33:29.581Z,20.30
2022-08-02T02:34:37.835Z,20.22
2022-08-02T02:35:42.256Z,20.21
2022-08-02T02:36:50.879Z,20.15
2022-08-02T02:37:54.936Z,19.88
2022-08-02T02:39:03.661Z,19.87
2022-08-02T02:40:06.888Z,19.78
2022-08-02T02:41:09.768Z,19.70
2022-08-02T02:42:15.511Z,19.51
2022-08-02T02:43:17.616Z,19.21
2022-08-02T02:44:21.575Z,18.99
2022-08-02T02:45:24.226Z,18.54
2022-08-02T02:46:27.293Z,18.26
2022-08-02T02:47:40.509Z,17.94
2022-08-02T02:48:43.926Z,17.63
2022-08-02T02:49:48.181Z,17.57
2022-08-02T02:50:51.014Z,17.47
2022-08-02T02:51:53.948Z,17.39
2022-08-02T02:52:56.834Z,17.33
2022-08-02T02:54:32.280Z,17.34
2022-08-02T02:55:22.933Z,17.24
2022-08-02T02:56:24.983Z,17.12
2022-08-02T02:57:26.826Z,17.06
2022-08-02T02:58:29.099Z,17.06
2022-08-02T02:59:32.583Z,17.08
2022-08-02T03:00:52.850Z,17.09
2022-08-02T03:01:57.646Z,17.07
2022-08-02T03:02:59.797Z,17.11
2022-08-02T03:04:04.357Z,17.18
2022-08-02T03:05:10.791Z,17.24
2022-08-02T03:06:15.072Z,17.24
2022-08-02T03:07:17.952Z,17.26
2022-08-02T03:08:19.602Z,17.28
2022-08-02T03:09:21.327Z,17.29
2022-08-02T03:10:22.919Z,17.29
2022-08-02T03:11:29.807Z,17.29
2022-08-02T03:12:32.594Z,17.29
2022-08-02T03:13:37.482Z,17.16
2022-08-02T03:14:43.479Z,17.14
2022-08-02T03:15:46.844Z,17.10
2022-08-02T03:16:50.921Z,17.10
2022-08-02T03:17:52.555Z,17.14
2022-08-02T03:18:55.877Z,17.25
2022-08-02T03:19:57.497Z,17.42
2022-08-02T03:21:19.295Z,17.58
2022-08-02T03:22:20.939Z,17.68
2022-08-02T03:23:22.550Z,17.75
2022-08-02T03:24:27.606Z,17.82
2022-08-02T03:25:30.159Z,17.88
2022-08-02T03:26:32.003Z,17.99
2022-08-02T03:27:33.637Z,18.09
2022-08-02T03:28:35.324Z,18.19
2022-08-02T03:29:36.959Z,18.26
2022-08-02T03:30:38.526Z,18.36
2022-08-02T03:31:42.813Z,18.39
2022-08-02T03:32:47.377Z,18.42
2022-08-02T03:33:49.538Z,18.37
2022-08-02T03:34:51.198Z,18.47
2022-08-02T03:35:55.382Z,18.51
2022-08-02T03:36:58.216Z,18.60
2022-08-02T03:38:00.402Z,18.67
2022-08-02T03:39:04.302Z,18.73
2022-08-02T03:40:08.231Z,18.80
2022-08-02T03:41:12.826Z,18.81
2022-08-02T03:42:16.178Z,18.79
2022-08-02T03:43:18.049Z,18.77
2022-08-02T03:44:19.992Z,18.69
2022-08-02T03:45:22.404Z,18.55
2022-08-02T03:46:26.582Z,18.53
2022-08-02T03:47:28.979Z,18.64
2022-08-02T03:48:34.802Z,18.74
2022-08-02T03:49:37.783Z,18.84
2022-08-02T03:50:41.035Z,18.87
2022-08-02T03:51:42.932Z,18.93
2022-08-02T03:52:47.626Z,19.00
2022-08-02T03:53:49.365Z,19.05
2022-08-02T03:54:51.185Z,19.07
2022-08-02T03:55:55.836Z,19.06
2022-08-02T03:56:57.947Z,19.03
2022-08-02T03:57:59.706Z,19.01
2022-08-02T03:59:09.473Z,18.99
2022-08-02T04:00:18.009Z,19.05
2022-08-02T04:01:19.678Z,19.14
2022-08-02T04:02:21.332Z,19.15
2022-08-02T04:03:23.080Z,19.29
2022-08-02T04:04:24.709Z,19.42
2022-08-02T04:05:26.458Z,19.54
2022-08-02T04:06:28.480Z,19.69
2022-08-02T04:08:03.486Z,19.79
2022-08-02T04:08:53.038Z,19.90
2022-08-02T04:09:54.611Z,19.91
2022-08-02T04:11:14.603Z,19.94
2022-08-02T04:12:16.171Z,20.02
2022-08-02T04:13:17.833Z,20.12
2022-08-02T04:14:23.094Z,20.19
2022-08-02T04:15:25.015Z,20.21
2022-08-02T04:16:38.910Z,20.24
2022-08-02T04:17:45.997Z,20.29
2022-08-02T04:18:55.278Z,20.35
2022-08-02T04:20:04.146Z,20.45
2022-08-02T04:21:09.502Z,20.56
2022-08-02T04:22:16.519Z,20.70
2022-08-02T04:23:18.640Z,20.84
2022-08-02T04:24:27.985Z,20.92
2022-08-02T04:25:40.258Z,20.98
2022-08-02T04:26:44.162Z,21.00
2022-08-02T04:28:17.310Z,21.02
2022-08-02T04:29:14.159Z,21.09
2022-08-02T04:30:17.595Z,21.07
2022-08-02T04:31:19.885Z,21.08
2022-08-02T04:32:22.549Z,20.97
2022-08-02T04:33:25.004Z,20.93
2022-08-02T04:34:26.781Z,20.93
2022-08-02T04:35:28.636Z,20.96
2022-08-02T04:36:31.022Z,21.03
2022-08-02T04:37:34.680Z,21.12
2022-08-02T04:38:36.902Z,21.15
2022-08-02T04:39:38.688Z,21.13
2022-08-02T04:40:40.346Z,21.29
2022-08-02T04:41:44.536Z,21.37
2022-08-02T04:42:46.221Z,21.46
2022-08-02T04:43:47.876Z,21.56
2022-08-02T04:44:50.552Z,21.63
2022-08-02T04:45:55.090Z,21.72
2022-08-02T04:46:58.199Z,21.80
2022-08-02T04:48:04.804Z,21.89
2022-08-02T04:49:07.344Z,21.99
2022-08-02T04:50:09.543Z,22.13
2022-08-02T04:51:11.121Z,22.27
2022-08-02T04:52:13.647Z,22.41
2022-08-02T04:53:15.706Z,22.54
2022-08-02T04:54:17.329Z,22.67
2022-08-02T04:55:18.927Z,22.74
2022-08-02T04:56:21.307Z,22.87
2022-08-02T04:57:52.928Z,23.03
2022-08-02T04:58:54.847Z,23.24
2022-08-02T04:59:57.060Z,23.26
2022-08-02T05:00:58.705Z,23.36
2022-08-02T05:02:00.293Z,23.37
2022-08-02T05:03:01.984Z,23.47
2022-08-02T05:04:03.790Z,23.59
2022-08-02T05:05:10.165Z,23.76
2022-08-02T05:06:19.508Z,23.98
2022-08-02T05:07:21.353Z,24.13
2022-08-02T05:08:22.910Z,24.23
2022-08-02T05:09:24.467Z,24.32
2022-08-02T05:10:26.081Z,24.41
2022-08-02T05:11:36.295Z,24.45
2022-08-02T05:12:40.215Z,24.41
2022-08-02T05:13:58.092Z,24.39
2022-08-02T05:15:01.117Z,24.39
2022-08-02T05:16:04.628Z,24.41
2022-08-02T05:17:06.812Z,24.41
2022-08-02T05:18:08.574Z,24.52
2022-08-02T05:19:10.212Z,24.57
2022-08-02T05:20:15.482Z,24.70
2022-08-02T05:21:17.123Z,24.83
2022-08-02T05:22:18.736Z,24.86
2022-08-02T05:23:20.569Z,24.90
2022-08-02T05:24:22.179Z,24.98
2022-08-02T05:25:23.742Z,25.02
2022-08-02T05:26:25.544Z,25.09
2022-08-02T05:27:27.235Z,25.14
2022-08-02T05:28:28.972Z,25.23
2022-08-02T05:29:31.626Z,25.37
2022-08-02T05:30:33.238Z,25.42
2022-08-02T05:31:34.855Z,25.39
2022-08-02T05:32:46.793Z,25.39
2022-08-02T05:33:48.521Z,25.47
2022-08-02T05:34:50.167Z,25.39
2022-08-02T05:35:51.871Z,25.32
2022-08-02T05:36:53.478Z,25.13
2022-08-02T05:37:55.237Z,25.11
2022-08-02T05:39:04.628Z,25.31
2022-08-02T05:40:12.706Z,25.54
2022-08-02T05:41:14.962Z,25.45
2022-08-02T05:42:16.662Z,25.17
2022-08-02T05:43:18.293Z,25.11
2022-08-02T05:44:22.539Z,25.01
2022-08-02T05:45:24.258Z,25.00
2022-08-02T05:46:26.258Z,24.89
2022-08-02T05:47:28.636Z,25.04
2022-08-02T05:48:32.396Z,25.17
2022-08-02T05:49:34.408Z,25.13
2022-08-02T05:50:39.880Z,25.10
2022-08-02T05:52:09.607Z,25.16
2022-08-02T05:53:18.608Z,25.34
2022-08-02T05:54:27.655Z,25.52
2022-08-02T05:55:35.290Z,25.29
2022-08-02T05:56:50.566Z,25.32
2022-08-02T05:58:01.448Z,25.30
2022-08-02T05:59:18.754Z,25.29
2022-08-02T06:00:21.689Z,25.44
2022-08-02T06:01:44.990Z,25.61
2022-08-02T06:03:05.510Z,25.98
2022-08-02T06:04:09.836Z,26.27
2022-08-02T06:05:11.588Z,26.30
2022-08-02T06:06:16.166Z,26.28
2022-08-02T06:07:19.729Z,26.34
2022-08-02T06:08:25.640Z,26.33
2022-08-02T06:09:28.364Z,26.50
2022-08-02T06:10:31.284Z,26.58
2022-08-02T06:12:02.408Z,26.51
2022-08-02T06:13:14.559Z,26.58
2022-08-02T06:14:16.860Z,26.81
2022-08-02T06:15:20.329Z,27.11
2022-08-02T06:16:32.458Z,27.30
2022-08-02T06:17:34.920Z,27.60
2022-08-02T06:18:44.153Z,27.81
2022-08-02T06:19:52.494Z,27.81
2022-08-02T06:20:57.360Z,27.95
2022-08-02T06:22:32.695Z,28.14
2022-08-02T06:23:42.686Z,28.21
2022-08-02T06:25:02.557Z,28.35
2022-08-02T06:26:07.072Z,28.52
2022-08-02T06:27:09.102Z,28.65
2022-08-02T06:28:11.812Z,28.60
2022-08-02T06:29:14.878Z,28.53
2022-08-02T06:30:16.784Z,28.62
2022-08-02T06:31:19.293Z,28.57
2022-08-02T06:32:21.445Z,28.38
2022-08-02T06:33:24.366Z,28.44
2022-08-02T06:34:25.926Z,28.39
2022-08-02T06:36:01.151Z,28.48
2022-08-02T06:37:15.325Z,28.67
2022-08-02T06:38:24.283Z,28.75
2022-08-02T06:39:39.174Z,28.77
2022-08-02T06:40:43.767Z,28.46
2022-08-02T06:41:49.415Z,28.40
2022-08-02T06:42:59.908Z,28.59
2022-08-02T06:44:26.183Z,28.52
2022-08-02T06:45:24.956Z,28.32
2022-08-02T06:46:38.035Z,28.27
2022-08-02T06:47:48.976Z,28.41
2022-08-02T06:48:50.805Z,28.43
2022-08-02T06:49:54.235Z,28.55
2022-08-02T06:50:56.516Z,28.38
2022-08-02T06:51:58.210Z,28.31
2022-08-02T06:53:00.584Z,28.22
2022-08-02T06:54:02.306Z,28.47
2022-08-02T06:55:05.674Z,28.11
2022-08-02T06:56:07.363Z,28.03
2022-08-02T06:57:10.768Z,28.01
2022-08-02T06:58:14.090Z,28.34
2022-08-02T06:59:15.812Z,28.47
2022-08-02T07:00:17.465Z,28.68
2022-08-02T07:01:19.941Z,28.83
2022-08-02T07:02:21.647Z,28.96
2022-08-02T07:03:25.514Z,29.04
2022-08-02T07:04:27.104Z,29.16
2022-08-02T07:05:28.737Z,29.21
2022-08-02T07:06:31.304Z,29.02
2022-08-02T07:07:33.429Z,28.97
2022-08-02T07:08:38.448Z,28.69
2022-08-02T07:10:00.887Z,28.09
2022-08-02T07:11:06.324Z,27.60
2022-08-02T07:12:08.184Z,27.75
2022-08-02T07:13:10.623Z,27.58
2022-08-02T07:14:12.301Z,27.82
2022-08-02T07:15:13.919Z,27.89
2022-08-02T07:16:15.704Z,27.84
2022-08-02T07:17:17.288Z,28.09
2022-08-02T07:18:18.964Z,28.12
2022-08-02T07:19:20.635Z,27.71
2022-08-02T07:20:23.270Z,27.32
2022-08-02T07:21:56.352Z,27.06
2022-08-02T07:22:46.480Z,26.96
2022-08-02T07:23:48.089Z,27.12
2022-08-02T07:24:50.257Z,27.34
2022-08-02T07:26:02.642Z,27.58
2022-08-02T07:27:11.556Z,28.00
2022-08-02T07:28:24.091Z,28.36
2022-08-02T07:29:26.874Z,28.74
2022-08-02T07:30:34.371Z,28.96
2022-08-02T07:31:36.263Z,28.86
2022-08-02T07:32:38.082Z,28.46
2022-08-02T07:33:42.357Z,28.07
2022-08-02T07:34:52.876Z,28.25
2022-08-02T07:35:57.424Z,28.68
2022-08-02T07:36:59.057Z,28.75
2022-08-02T07:38:02.984Z,28.88
2022-08-02T07:39:06.190Z,28.96
2022-08-02T07:40:14.067Z,29.15
2022-08-02T07:41:17.079Z,29.37
2022-08-02T07:42:18.743Z,29.48
2022-08-02T07:43:20.370Z,29.58
2022-08-02T07:44:22.180Z,29.63
2022-08-02T07:45:27.699Z,29.69
2022-08-02T07:46:29.358Z,29.66
2022-08-02T07:47:31.346Z,29.77
2022-08-02T07:48:33.582Z,30.02
2022-08-02T07:49:35.319Z,30.10
2022-08-02T07:50:37.007Z,30.23
2022-08-02T07:51:38.597Z,30.14
2022-08-02T07:52:44.815Z,29.95
2022-08-02T07:53:51.200Z,29.93
2022-08-02T07:55:05.381Z,30.12
2022-08-02T07:56:07.006Z,30.22
2022-08-02T07:57:08.639Z,30.34
2022-08-02T07:58:12.284Z,30.49
2022-08-02T07:59:15.031Z,30.37
2022-08-02T08:00:17.612Z,29.99
2022-08-02T08:01:19.608Z,29.91
2022-08-02T08:02:21.357Z,30.01
2022-08-02T08:03:23.037Z,29.86
2022-08-02T08:04:24.668Z,29.87
2022-08-02T08:05:26.221Z,30.14
2022-08-02T08:06:29.046Z,30.40
2022-08-02T08:07:30.936Z,30.73
2022-08-02T08:08:35.105Z,30.99
2022-08-02T08:09:42.353Z,31.15
2022-08-02T08:10:44.116Z,31.02
2022-08-02T08:11:45.817Z,31.19
2022-08-02T08:12:47.400Z,31.05
2022-08-02T08:13:49.067Z,30.77
2022-08-02T08:14:50.748Z,30.56
2022-08-02T08:15:52.783Z,30.37
2022-08-02T08:16:54.849Z,30.08
2022-08-02T08:17:56.710Z,29.86
2022-08-02T08:18:58.460Z,29.90
2022-08-02T08:20:01.707Z,29.84
2022-08-02T08:21:04.338Z,29.83
2022-08-02T08:22:06.128Z,29.86
2022-08-02T08:23:07.776Z,29.91
2022-08-02T08:24:09.411Z,29.98
2022-08-02T08:25:11.096Z,30.02
2022-08-02T08:26:15.767Z,30.12
2022-08-02T08:27:18.511Z,30.08
2022-08-02T08:28:20.283Z,30.16
2022-08-02T08:29:22.363Z,30.17
2022-08-02T08:30:24.079Z,29.98
2022-08-02T08:31:25.635Z,30.05
2022-08-02T08:32:27.646Z,30.12
2022-08-02T08:33:29.298Z,29.95
2022-08-02T08:34:31.447Z,29.65
2022-08-02T08:35:33.259Z,29.55
2022-08-02T08:36:34.834Z,29.47
2022-08-02T08:37:36.894Z,29.48
2022-08-02T08:38:38.520Z,29.57
2022-08-02T08:39:53.618Z,29.60
2022-08-02T08:41:00.385Z,29.83
2022-08-02T08:42:02.638Z,29.84
2022-08-02T08:43:04.954Z,29.81
2022-08-02T08:44:08.499Z,29.79
2022-08-02T08:45:10.633Z,29.76
2022-08-02T08:46:21.060Z,29.68
2022-08-02T08:47:24.085Z,29.36
2022-08-02T08:48:30.336Z,29.40
2022-08-02T08:49:37.169Z,29.35
2022-08-02T08:51:01.022Z,29.31
2022-08-02T08:52:06.729Z,29.27
2022-08-02T08:53:12.227Z,29.10
2022-08-02T08:54:17.314Z,29.06
2022-08-02T08:55:23.199Z,29.02
2022-08-02T08:56:33.352Z,28.95
2022-08-02T08:57:39.991Z,28.99
2022-08-02T08:58:42.700Z,29.10
2022-08-02T08:59:46.376Z,29.11
2022-08-02T09:00:48.056Z,29.27
2022-08-02T09:01:53.237Z,29.36
2022-08-02T09:02:55.104Z,29.41
2022-08-02T09:03:57.413Z,29.50
2022-08-02T09:04:59.052Z,29.61
2022-08-02T09:06:01.018Z,29.61
2022-08-02T09:07:02.815Z,29.54
2022-08-02T09:08:05.202Z,29.50
2022-08-02T09:09:06.985Z,29.44
2022-08-02T09:10:33.680Z,29.50
2022-08-02T09:11:35.274Z,29.60
2022-08-02T09:12:36.869Z,29.58
2022-08-02T09:13:46.077Z,29.54
2022-08-02T09:14:50.280Z,29.43
2022-08-02T09:15:57.502Z,29.15
2022-08-02T09:17:12.199Z,29.13
2022-08-02T09:18:13.935Z,29.21
2022-08-02T09:19:24.243Z,29.19
2022-08-02T09:20:30.433Z,29.08
2022-08-02T09:21:37.134Z,29.19
2022-08-02T09:22:38.773Z,29.13
2022-08-02T09:23:46.385Z,29.14
2022-08-02T09:24:50.060Z,29.17
2022-08-02T09:26:07.391Z,29.28
2022-08-02T09:27:17.609Z,29.27
2022-08-02T09:28:19.237Z,29.18
2022-08-02T09:29:24.965Z,29.22
2022-08-02T09:30:27.041Z,29.30
2022-08-02T09:31:28.712Z,29.34
2022-08-02T09:32:43.953Z,29.38
2022-08-02T09:33:57.725Z,29.46
2022-08-02T09:34:59.307Z,29.59
2022-08-02T09:36:06.314Z,29.72
2022-08-02T09:37:22.909Z,29.68
2022-08-02T09:38:25.963Z,29.56
2022-08-02T09:39:44.996Z,29.44
2022-08-02T09:40:49.237Z,29.36
2022-08-02T09:41:50.878Z,29.40
2022-08-02T09:43:01.327Z,29.45
2022-08-02T09:44:07.107Z,29.37
2022-08-02T09:45:09.534Z,29.32
2022-08-02T09:46:24.458Z,29.22
2022-08-02T09:47:28.272Z,29.11
2022-08-02T09:48:32.740Z,29.12
2022-08-02T09:49:34.401Z,29.17
2022-08-02T09:50:41.913Z,29.15
2022-08-02T09:51:49.659Z,29.16
2022-08-02T09:52:51.328Z,29.17
2022-08-02T09:54:08.592Z,29.19
2022-08-02T09:55:11.816Z,29.22
2022-08-02T09:56:29.523Z,29.17
2022-08-02T09:57:38.527Z,29.22
2022-08-02T09:58:40.459Z,29.27
2022-08-02T09:59:53.475Z,29.30
2022-08-02T10:00:56.779Z,29.35
2022-08-02T10:02:02.547Z,29.36
2022-08-02T10:03:21.557Z,29.42
2022-08-02T10:04:26.431Z,29.46
2022-08-02T10:05:35.607Z,29.36
2022-08-02T10:06:44.573Z,29.36
2022-08-02T10:07:46.319Z,29.38
2022-08-02T10:08:48.147Z,29.42
2022-08-02T10:09:51.109Z,29.48
2022-08-02T10:11:00.591Z,29.52
2022-08-02T10:12:08.869Z,29.54
2022-08-02T10:13:11.622Z,29.58
2022-08-02T10:14:13.633Z,29.52
2022-08-02T10:15:17.567Z,29.50
2022-08-02T10:16:23.470Z,29.42
2022-08-02T10:17:25.369Z,29.51
2022-08-02T10:18:39.498Z,29.48
2022-08-02T10:20:02.467Z,29.38
2022-08-02T10:21:10.738Z,29.37
2022-08-02T10:22:15.296Z,29.48
2022-08-02T10:23:20.618Z,29.67
2022-08-02T10:24:27.170Z,29.79
2022-08-02T10:25:30.453Z,29.87
2022-08-02T10:26:32.902Z,29.81
2022-08-02T10:28:02.425Z,29.83
2022-08-02T10:28:57.822Z,29.80
2022-08-02T10:30:00.741Z,29.81
2022-08-02T10:31:05.637Z,29.92
2022-08-02T10:32:43.030Z,29.93
2022-08-02T10:33:50.098Z,29.85
2022-08-02T10:34:57.561Z,29.85
2022-08-02T10:36:07.553Z,29.95
2022-08-02T10:37:11.520Z,30.05
2022-08-02T10:38:18.296Z,30.18
2022-08-02T10:39:20.016Z,30.30
2022-08-02T10:40:26.543Z,30.32
2022-08-02T10:41:43.785Z,30.26
2022-08-02T10:42:45.373Z,30.16
2022-08-02T10:43:48.148Z,30.16
2022-08-02T10:45:09.593Z,30.22
2022-08-02T10:46:36.845Z,30.21
2022-08-02T10:47:38.531Z,30.22
2022-08-02T10:49:38.525Z,30.30
2022-08-02T10:50:46.049Z,30.43
2022-08-02T10:52:03.129Z,30.57
2022-08-02T10:53:27.685Z,30.65
2022-08-02T10:54:35.791Z,30.67
2022-08-02T10:55:46.551Z,30.72
2022-08-02T10:56:53.568Z,30.72
2022-08-02T10:58:29.931Z,30.64
2022-08-02T10:59:36.286Z,30.60
2022-08-02T11:00:38.121Z,30.61
2022-08-02T11:01:44.137Z,30.61
2022-08-02T11:02:53.387Z,30.62
2022-08-02T11:04:00.072Z,30.55
2022-08-02T11:05:05.176Z,30.58
2022-08-02T11:06:24.972Z,30.62
2022-08-02T11:07:39.507Z,30.67
2022-08-02T11:08:41.356Z,30.70
2022-08-02T11:09:46.936Z,30.73
2022-08-02T11:10:48.752Z,30.81
2022-08-02T11:12:10.995Z,30.96
2022-08-02T11:13:19.516Z,30.93
2022-08-02T11:14:21.301Z,30.80
2022-08-02T11:15:23.151Z,30.54
2022-08-02T11:17:07.802Z,30.42
2022-08-02T11:18:09.386Z,30.43
2022-08-02T11:19:11.907Z,30.52
2022-08-02T11:20:13.538Z,30.53
2022-08-02T11:21:29.977Z,30.46
2022-08-02T11:22:31.673Z,30.51
2022-08-02T11:23:45.175Z,30.56
2022-08-02T11:24:47.647Z,30.50
2022-08-02T11:26:10.805Z,30.46
2022-08-02T11:27:22.138Z,30.32
2022-08-02T11:28:25.714Z,30.30
2022-08-02T11:29:45.553Z,30.28
2022-08-02T11:30:56.777Z,30.30
2022-08-02T11:31:59.031Z,30.22
2022-08-02T11:33:01.299Z,30.26
2022-08-02T11:34:09.266Z,30.31
2022-08-02T11:35:12.097Z,30.33
2022-08-02T11:36:15.239Z,30.40
2022-08-02T11:37:43.440Z,30.48
2022-08-02T11:38:45.768Z,30.34
2022-08-02T11:39:51.840Z,30.21
2022-08-02T11:40:57.248Z,30.27
2022-08-02T11:42:00.898Z,30.34
2022-08-02T11:43:02.476Z,30.38
2022-08-02T11:44:04.452Z,30.28
2022-08-02T11:45:08.766Z,30.33
2022-08-02T11:46:14.844Z,30.36
2022-08-02T11:47:16.606Z,30.38
2022-08-02T11:48:35.469Z,30.32
2022-08-02T11:49:37.564Z,30.32
2022-08-02T11:50:39.286Z,30.29
2022-08-02T11:51:54.588Z,30.32
2022-08-02T11:52:56.326Z,30.38
2022-08-02T11:53:58.009Z,30.49
2022-08-02T11:54:59.787Z,30.48
2022-08-02T11:56:01.375Z,30.40
2022-08-02T11:57:15.612Z,30.34
2022-08-02T11:58:20.813Z,30.41
2022-08-02T11:59:22.562Z,30.39
2022-08-02T12:00:26.967Z,30.40
2022-08-02T12:01:36.753Z,30.50
2022-08-02T12:02:48.506Z,30.53
2022-08-02T12:03:50.416Z,30.52
2022-08-02T12:05:10.170Z,30.45
2022-08-02T12:06:16.732Z,30.45
2022-08-02T12:07:18.935Z,30.49
2022-08-02T12:08:37.806Z,30.59
2022-08-02T12:09:41.410Z,30.72
2022-08-02T12:10:49.844Z,30.76
2022-08-02T12:11:51.697Z,30.73
2022-08-02T12:12:58.994Z,30.67
2022-08-02T12:14:01.116Z,30.64
2022-08-02T12:15:02.816Z,30.59
2022-08-02T12:16:31.132Z,30.64
2022-08-02T12:17:51.194Z,30.80
2022-08-02T12:19:11.709Z,30.84
2022-08-02T12:20:17.373Z,30.65
2022-08-02T12:21:26.481Z,30.62
2022-08-02T12:22:28.362Z,30.62
2022-08-02T12:23:30.500Z,30.59
2022-08-02T12:24:32.126Z,30.55
2022-08-02T12:25:35.553Z,30.57
2022-08-02T12:26:45.292Z,30.55
2022-08-02T12:27:46.921Z,30.69
2022-08-02T12:28:57.479Z,30.74
2022-08-02T12:30:06.785Z,30.73
2022-08-02T12:31:10.757Z,30.74
2022-08-02T12:32:24.200Z,30.72
2022-08-02T12:33:44.083Z,30.69
2022-08-02T12:35:08.387Z,30.70
2022-08-02T12:36:20.252Z,30.73
2022-08-02T12:37:25.839Z,30.90
2022-08-02T12:38:27.462Z,30.89
2022-08-02T12:39:39.468Z,30.87
2022-08-02T12:40:41.548Z,30.78
2022-08-02T12:41:55.018Z,30.71
2022-08-02T12:42:59.336Z,30.74
2022-08-02T12:44:01.045Z,30.68
2022-08-02T12:45:02.640Z,30.68
2022-08-02T12:46:04.268Z,30.73
2022-08-02T12:47:12.103Z,30.85
2022-08-02T12:48:13.990Z,30.91
2022-08-02T12:49:19.828Z,31.00
2022-08-02T12:50:24.836Z,30.92
2022-08-02T12:51:56.512Z,30.90
2022-08-02T12:53:16.130Z,30.87
2022-08-02T12:54:27.421Z,30.88
2022-08-02T12:56:02.298Z,30.90
2022-08-02T12:56:55.040Z,30.95
2022-08-02T12:58:00.264Z,31.00
2022-08-02T12:59:01.974Z,31.07
2022-08-02T13:00:04.524Z,31.11
2022-08-02T13:01:06.130Z,31.12
2022-08-02T13:02:11.594Z,31.16
2022-08-02T13:04:11.239Z,31.17
2022-08-02T13:04:35.895Z,31.08
2022-08-02T13:05:57.187Z,30.98
2022-08-02T13:06:59.285Z,31.01
2022-08-02T13:08:00.988Z,31.08
2022-08-02T13:09:12.694Z,31.02
2022-08-02T13:10:14.595Z,30.98
2022-08-02T13:11:16.485Z,30.93
2022-08-02T13:12:20.545Z,30.98
2022-08-02T13:13:22.497Z,30.96
2022-08-02T13:14:24.082Z,31.05
2022-08-02T13:15:49.600Z,31.12
2022-08-02T13:16:51.537Z,31.03
2022-08-02T13:17:53.567Z,31.06
2022-08-02T13:18:55.128Z,31.02
2022-08-02T13:19:56.749Z,30.93
2022-08-02T13:20:59.175Z,31.00
2022-08-02T13:22:11.491Z,31.01
2022-08-02T13:23:21.227Z,31.00
2022-08-02T13:24:39.434Z,31.03
2022-08-02T13:25:45.296Z,31.18
2022-08-02T13:26:54.250Z,31.08
2022-08-02T13:27:55.927Z,30.98
2022-08-02T13:28:57.729Z,30.92
2022-08-02T13:30:00.417Z,30.92
2022-08-02T13:31:20.584Z,30.96
2022-08-02T13:32:25.129Z,31.04
2022-08-02T13:33:26.696Z,31.04
2022-08-02T13:34:28.335Z,30.91
2022-08-02T13:35:30.424Z,30.91
2022-08-02T13:36:33.719Z,31.02
2022-08-02T13:37:40.118Z,31.04
2022-08-02T13:38:42.190Z,31.09
2022-08-02T13:39:55.349Z,31.01
2022-08-02T13:41:11.097Z,30.98
2022-08-02T13:42:16.792Z,30.93
2022-08-02T13:43:18.632Z,30.84
2022-08-02T13:44:20.268Z,30.82
2022-08-02T13:45:22.113Z,30.85
2022-08-02T13:46:28.891Z,30.84
2022-08-02T13:47:36.532Z,30.84
2022-08-02T13:48:52.869Z,30.84
2022-08-02T13:49:54.589Z,30.91
2022-08-02T13:50:56.341Z,30.99
2022-08-02T13:51:57.925Z,31.06
2022-08-02T13:52:59.628Z,31.09
2022-08-02T13:54:01.279Z,31.09
2022-08-02T13:55:03.441Z,31.09
2022-08-02T13:56:14.072Z,31.03
2022-08-02T13:57:16.031Z,31.03
2022-08-02T13:58:17.634Z,31.02
2022-08-02T13:59:54.808Z,31.02
2022-08-02T14:00:41.026Z,31.02
2022-08-02T14:01:42.633Z,30.93
2022-08-02T14:02:44.262Z,30.95
2022-08-02T14:04:07.802Z,30.96
2022-08-02T14:05:07.853Z,30.90
2022-08-02T14:06:10.779Z,30.84
2022-08-02T14:07:12.952Z,30.88
2022-08-02T14:08:16.809Z,30.93
2022-08-02T14:09:19.042Z,31.01
2022-08-02T14:10:20.611Z,31.12
2022-08-02T14:11:22.322Z,31.16
2022-08-02T14:12:23.925Z,31.10